Time;durP1;ratioP1;P1;durP2;ratioP2;P2;SDS_P1;SDS_P2;PMS_P1;PMS_P2;Temp;Humidity;BMP_temperature;BMP_pressure;BME280_temperature;BME280_humidity;BME280_pressure;Samples;Min_cycle;Max_cycle;Signal;HPM_P1;HPM_P2
2022/07/15 00:01:25;;;;;;;6.00;3.53;;;12.80;57.40;;;;;;5048504;28;20680;-49
2022/07/15 00:03:55;;;;;;;6.93;3.60;;;12.80;57.30;;;;;;5048746;28;20200;-53
2022/07/15 00:06:26;;;;;;;5.47;4.60;;;12.80;57.30;;;;;;5049355;28;20195;-46
2022/07/15 00:08:57;;;;;;;4.30;3.55;;;12.80;57.30;;;;;;5050580;28;20618;-53
2022/07/15 00:11:27;;;;;;;4.30;2.80;;;12.80;57.30;;;;;;5053147;28;20199;-52
2022/07/15 00:13:58;;;;;;;4.22;2.65;;;12.80;57.30;;;;;;5052817;28;20702;-54
2022/07/15 00:16:31;;;;;;;3.67;2.85;;;12.70;57.20;;;;;;5053389;28;20227;-49
2022/07/15 00:19:01;;;;;;;5.90;3.17;;;12.70;57.20;;;;;;5052539;28;20200;-50
2022/07/15 00:21:33;;;;;;;8.18;4.80;;;12.70;57.10;;;;;;5052839;28;20278;-46
2022/07/15 00:24:03;;;;;;;8.18;3.42;;;12.70;57.10;;;;;;5052312;28;20200;-50
2022/07/15 00:26:34;;;;;;;4.45;2.03;;;12.70;57.10;;;;;;5052859;28;20647;-46
2022/07/15 00:29:05;;;;;;;2.90;1.50;;;12.60;57.10;;;;;;5051572;28;20223;-42
2022/07/15 00:31:37;;;;;;;5.55;2.20;;;12.60;57.20;;;;;;5051769;28;20200;-59
2022/07/15 00:34:08;;;;;;;4.78;2.25;;;12.70;57.30;;;;;;5052506;28;20282;-54
2022/07/15 00:36:39;;;;;;;3.50;1.83;;;12.60;57.50;;;;;;5052599;28;20219;-51
2022/07/15 00:39:10;;;;;;;4.50;2.55;;;12.70;58.40;;;;;;5053146;28;20251;-56
2022/07/15 00:41:41;;;;;;;7.15;6.45;;;12.70;59.40;;;;;;5052780;28;20256;-52
2022/07/15 00:44:12;;;;;;;32.88;29.48;;;12.80;60.80;;;;;;5051881;28;20203;-58
2022/07/15 00:46:45;;;;;;;82.13;70.40;;;12.90;62.10;;;;;;5052050;28;20674;-50
2022/07/15 00:49:16;;;;;;;123.18;92.25;;;13.10;63.20;;;;;;5052048;28;20856;-58
2022/07/15 00:51:48;;;;;;;104.90;79.38;;;13.20;63.40;;;;;;5051763;28;20199;-55
2022/07/15 00:54:20;;;;;;;79.88;56.42;;;13.40;63.30;;;;;;5051703;28;20214;-53
2022/07/15 00:56:54;;;;;;;53.90;40.50;;;13.50;62.60;;;;;;5052104;28;20219;-59
2022/07/15 00:59:26;;;;;;;58.22;43.38;;;13.60;61.80;;;;;;5045822;28;20312;-58
2022/07/15 01:02:00;;;;;;;44.78;30.60;;;13.70;61.20;;;;;;5052061;28;20207;-55
2022/07/15 01:04:31;;;;;;;38.38;27.83;;;13.80;60.80;;;;;;5052109;28;20238;-59
2022/07/15 01:07:02;;;;;;;44.83;34.13;;;13.90;60.60;;;;;;5052118;28;20203;-50
2022/07/15 01:09:33;;;;;;;32.83;26.10;;;13.90;60.40;;;;;;5052394;28;20223;-57
2022/07/15 01:12:03;;;;;;;36.53;27.30;;;14.00;60.30;;;;;;5051844;28;20199;-52
2022/07/15 01:14:34;;;;;;;30.50;23.30;;;14.00;60.20;;;;;;5052462;28;20687;-56
2022/07/15 01:17:12;;;;;;;30.02;23.38;;;14.00;60.00;;;;;;5052059;28;20219;-56
2022/07/15 01:19:43;;;;;;;33.08;23.58;;;14.00;60.00;;;;;;5051360;28;20226;-59
2022/07/15 01:22:16;;;;;;;31.08;24.70;;;14.00;60.00;;;;;;5051557;28;20199;-58
2022/07/15 01:24:46;;;;;;;29.05;22.52;;;14.00;60.00;;;;;;5051892;28;20586;-58
2022/07/15 01:27:17;;;;;;;28.77;19.45;;;14.00;60.00;;;;;;5051653;28;20199;-56
2022/07/15 01:29:48;;;;;;;28.33;21.42;;;14.00;60.00;;;;;;5051317;28;20234;-59
2022/07/15 01:32:18;;;;;;;25.88;18.30;;;14.10;60.30;;;;;;5051061;28;20196;-52
2022/07/15 01:34:49;;;;;;;24.70;18.67;;;14.00;60.20;;;;;;5051788;28;20191;-56
2022/07/15 01:37:22;;;;;;;22.83;18.10;;;14.10;60.20;;;;;;5051635;28;20261;-50
2022/07/15 01:39:52;;;;;;;22.33;16.35;;;14.10;60.20;;;;;;5051597;28;20222;-49
2022/07/15 01:42:23;;;;;;;22.23;16.75;;;14.10;60.30;;;;;;5051199;28;20207;-58
2022/07/15 01:44:54;;;;;;;22.23;16.65;;;14.10;60.30;;;;;;5050815;28;20670;-52
2022/07/15 01:47:25;;;;;;;18.92;15.18;;;14.10;60.30;;;;;;5051363;28;20199;-53
2022/07/15 01:49:54;;;;;;;20.20;15.45;;;14.10;60.30;;;;;;5031467;28;20222;-52
2022/07/15 01:52:27;;;;;;;17.00;13.23;;;14.10;60.40;;;;;;5048418;28;20810;-53
2022/07/15 01:54:57;;;;;;;18.08;14.68;;;14.10;60.40;;;;;;5050437;28;20207;-57
2022/07/15 01:57:28;;;;;;;18.17;14.32;;;14.20;60.50;;;;;;5051187;28;20233;-50
2022/07/15 01:59:59;;;;;;;19.92;14.30;;;14.10;60.60;;;;;;5051588;28;20227;-56
2022/07/15 02:02:29;;;;;;;19.20;15.38;;;14.10;60.70;;;;;;5033344;28;20203;-58
2022/07/15 02:05:00;;;;;;;16.23;12.35;;;14.10;60.70;;;;;;5050781;28;20608;-48
2022/07/15 02:07:33;;;;;;;14.45;11.90;;;14.20;60.70;;;;;;5050825;28;20196;-55
2022/07/15 02:10:04;;;;;;;13.63;11.48;;;14.20;60.60;;;;;;5050623;28;20677;-55
2022/07/15 02:12:34;;;;;;;17.45;11.15;;;14.20;60.60;;;;;;5050278;28;20200;-57
2022/07/15 02:15:05;;;;;;;15.15;10.32;;;14.20;60.60;;;;;;5050178;28;20187;-46
2022/07/15 02:17:36;;;;;;;13.93;11.43;;;14.20;60.70;;;;;;5050694;28;20554;-55
2022/07/15 02:20:07;;;;;;;13.10;10.23;;;14.20;60.60;;;;;;5050101;28;20228;-55
2022/07/15 02:22:40;;;;;;;12.27;10.15;;;14.20;60.80;;;;;;5049923;28;20204;-53
2022/07/15 02:25:14;;;;;;;11.48;9.50;;;14.20;60.80;;;;;;5051015;28;20202;-52
2022/07/15 02:27:44;;;;;;;10.50;9.15;;;14.20;60.90;;;;;;5050092;28;20215;-56
2022/07/15 02:30:15;;;;;;;10.98;8.98;;;14.20;61.00;;;;;;5050929;28;20958;-55
2022/07/15 02:32:46;;;;;;;9.82;8.35;;;14.20;61.90;;;;;;5050590;28;20193;-58
2022/07/15 02:35:16;;;;;;;10.25;8.30;;;14.20;61.10;;;;;;5050572;28;20195;-52
2022/07/15 02:37:49;;;;;;;11.43;9.18;;;14.20;61.30;;;;;;5049877;28;20778;-59
2022/07/15 02:40:20;;;;;;;9.57;7.53;;;14.20;61.20;;;;;;5049569;28;20216;-49
2022/07/15 02:42:52;;;;;;;7.97;7.18;;;14.20;61.00;;;;;;5048962;28;20209;-58
2022/07/15 02:45:23;;;;;;;9.85;8.05;;;14.20;60.90;;;;;;5050540;28;20206;-54
2022/07/15 02:47:55;;;;;;;8.35;6.93;;;14.20;60.90;;;;;;5050317;28;20226;-59
2022/07/15 02:50:26;;;;;;;8.30;7.15;;;14.20;60.90;;;;;;5050287;28;20220;-56
2022/07/15 02:52:58;;;;;;;8.32;6.85;;;14.20;60.90;;;;;;5050467;28;20568;-52
2022/07/15 02:55:29;;;;;;;7.25;6.30;;;14.20;61.00;;;;;;5050407;28;20203;-57
2022/07/15 02:58:00;;;;;;;7.47;6.63;;;14.20;61.10;;;;;;5050071;28;20231;-52
2022/07/15 03:00:30;;;;;;;6.72;5.72;;;14.20;61.20;;;;;;5049847;28;20585;-50
2022/07/15 03:03:01;;;;;;;6.95;5.50;;;14.20;61.20;;;;;;5049973;28;20199;-48
2022/07/15 03:05:32;;;;;;;6.80;5.53;;;14.30;61.30;;;;;;5049406;28;20352;-55
2022/07/15 03:08:04;;;;;;;5.80;5.20;;;14.20;61.20;;;;;;5049657;28;20206;-55
2022/07/15 03:10:35;;;;;;;6.32;5.10;;;14.20;61.20;;;;;;5049740;28;20242;-54
2022/07/15 03:13:06;;;;;;;7.10;5.10;;;14.20;61.20;;;;;;5049750;28;20644;-53
2022/07/15 03:15:36;;;;;;;5.30;4.47;;;14.20;61.20;;;;;;5049792;28;20569;-54
2022/07/15 03:18:07;;;;;;;4.93;4.43;;;14.20;61.20;;;;;;5049697;28;20230;-49
2022/07/15 03:20:38;;;;;;;4.30;3.88;;;14.20;61.30;;;;;;5049788;28;20227;-54
2022/07/15 03:23:11;;;;;;;6.40;4.85;;;14.30;61.30;;;;;;5049531;28;20683;-46
2022/07/15 03:25:41;;;;;;;5.65;4.07;;;14.30;61.40;;;;;;5050375;28;20242;-48
2022/07/15 03:28:12;;;;;;;5.63;4.40;;;14.30;61.30;;;;;;5049404;28;20195;-53
2022/07/15 03:30:43;;;;;;;5.65;4.03;;;14.30;61.30;;;;;;5049537;28;20219;-57
2022/07/15 03:33:13;;;;;;;4.00;3.60;;;14.30;61.30;;;;;;5049698;28;20199;-48
2022/07/15 03:35:46;;;;;;;4.60;3.72;;;14.30;61.40;;;;;;5050036;28;20199;-57
2022/07/15 03:38:18;;;;;;;4.75;3.35;;;14.30;61.50;;;;;;5049767;28;20227;-57
2022/07/15 03:40:49;;;;;;;3.63;3.30;;;14.30;61.50;;;;;;5049521;28;20215;-46
2022/07/15 03:43:20;;;;;;;3.97;3.15;;;14.30;61.60;;;;;;5048437;28;20666;-58
2022/07/15 03:45:51;;;;;;;3.92;2.90;;;14.20;61.40;;;;;;5049293;28;20191;-51
2022/07/15 03:48:21;;;;;;;2.92;2.63;;;14.20;61.50;;;;;;5049725;28;20635;-52
2022/07/15 03:50:52;;;;;;;4.53;3.25;;;14.30;61.60;;;;;;5048901;28;20211;-56
2022/07/15 03:53:25;;;;;;;3.55;2.58;;;14.30;61.70;;;;;;5049101;28;20199;-58
2022/07/15 03:55:55;;;;;;;3.65;2.50;;;14.30;61.70;;;;;;5049655;28;20214;-50
2022/07/15 03:58:26;;;;;;;4.70;2.60;;;14.30;61.60;;;;;;5048974;28;20222;-52
2022/07/15 04:00:57;;;;;;;3.72;2.58;;;14.30;61.60;;;;;;5049187;28;20230;-53
2022/07/15 04:03:27;;;;;;;2.70;2.42;;;14.30;61.80;;;;;;5049049;28;20199;-49
2022/07/15 04:05:58;;;;;;;2.97;2.50;;;14.30;61.70;;;;;;5049222;28;20195;-55
2022/07/15 04:08:31;;;;;;;3.85;2.47;;;14.30;61.70;;;;;;5049524;28;20309;-59
2022/07/15 04:11:01;;;;;;;6.30;2.70;;;14.30;61.80;;;;;;5049290;28;20221;-50
2022/07/15 04:13:32;;;;;;;3.30;2.50;;;14.20;61.80;;;;;;5049026;28;20530;-55
2022/07/15 04:16:03;;;;;;;3.65;2.63;;;14.30;61.90;;;;;;5048693;28;20188;-49
2022/07/15 04:18:33;;;;;;;4.07;2.28;;;14.20;61.80;;;;;;5049290;28;20231;-55
2022/07/15 04:21:04;;;;;;;3.17;2.58;;;14.20;61.80;;;;;;5049075;28;20900;-49
2022/07/15 04:23:37;;;;;;;3.90;2.75;;;14.20;61.90;;;;;;5048968;28;20206;-58
2022/07/15 04:26:08;;;;;;;3.40;2.38;;;14.20;61.90;;;;;;5049717;28;20640;-55
2022/07/15 04:28:38;;;;;;;3.03;2.40;;;14.30;62.10;;;;;;5048482;28;20191;-55
2022/07/15 04:31:09;;;;;;;3.05;2.25;;;14.20;62.00;;;;;;5048558;28;20219;-56
2022/07/15 04:33:40;;;;;;;2.50;2.05;;;14.30;62.10;;;;;;5048522;28;20196;-52
2022/07/15 04:36:11;;;;;;;3.20;2.30;;;14.30;62.00;;;;;;5048270;28;20406;-54
2022/07/15 04:38:44;;;;;;;2.33;2.08;;;14.30;62.10;;;;;;5048765;28;20565;-51
2022/07/15 04:41:14;;;;;;;3.70;2.42;;;14.30;62.20;;;;;;5049149;28;20647;-48
2022/07/15 04:43:45;;;;;;;3.20;2.28;;;14.20;62.10;;;;;;5048559;28;20647;-56
2022/07/15 04:46:16;;;;;;;2.90;2.47;;;14.30;62.30;;;;;;5048677;28;20690;-50
2022/07/15 04:51:33;;;;;;;3.05;2.17;;;14.20;62.40;;;;;;5048247;28;20198;-53
2022/07/15 04:54:05;;;;;;;3.67;2.80;;;14.20;62.30;;;;;;5048739;28;20568;-48
2022/07/15 04:56:36;;;;;;;3.33;2.40;;;14.20;62.30;;;;;;5051378;28;20229;-53
2022/07/15 04:59:07;;;;;;;3.13;2.38;;;14.20;62.40;;;;;;5051945;28;20219;-49
2022/07/15 05:01:37;;;;;;;3.63;2.42;;;14.20;62.40;;;;;;5052392;28;20187;-55
2022/07/15 05:04:08;;;;;;;3.03;1.80;;;14.20;62.40;;;;;;5052448;28;20584;-49
2022/07/15 05:06:39;;;;;;;3.00;2.20;;;14.20;62.40;;;;;;5052288;28;20204;-57
2022/07/15 05:09:11;;;;;;;2.53;2.33;;;14.20;62.40;;;;;;5052384;28;20273;-58
2022/07/15 05:11:42;;;;;;;3.40;2.58;;;14.20;62.50;;;;;;5052149;28;20191;-49
2022/07/15 05:14:13;;;;;;;2.88;2.50;;;14.20;62.50;;;;;;5052117;28;20192;-48
2022/07/15 05:16:44;;;;;;;3.10;2.22;;;14.20;62.60;;;;;;5052350;28;20218;-56
2022/07/15 05:19:14;;;;;;;3.40;2.58;;;14.20;62.60;;;;;;5051987;28;20234;-58
2022/07/15 05:21:46;;;;;;;2.83;2.30;;;14.20;62.70;;;;;;5051964;28;20199;-56
2022/07/15 05:24:18;;;;;;;2.65;2.38;;;14.20;62.80;;;;;;5052021;28;20195;-54
2022/07/15 05:26:49;;;;;;;3.08;2.30;;;14.20;62.80;;;;;;5052702;28;20569;-53
2022/07/15 05:29:21;;;;;;;5.00;2.83;;;14.20;62.70;;;;;;5051504;28;20236;-52
2022/07/15 05:31:52;;;;;;;2.75;2.00;;;14.20;62.60;;;;;;5051592;28;20188;-49
2022/07/15 05:34:23;;;;;;;3.50;2.10;;;14.20;62.70;;;;;;5051534;28;20207;-57
2022/07/15 05:36:54;;;;;;;2.78;2.28;;;14.20;62.60;;;;;;5051143;28;20680;-51
2022/07/15 05:39:26;;;;;;;3.22;2.10;;;14.20;62.70;;;;;;5051036;28;20235;-45
2022/07/15 05:41:58;;;;;;;2.40;2.20;;;14.20;62.70;;;;;;5051230;28;20207;-51
2022/07/15 05:44:29;;;;;;;3.88;2.15;;;14.20;62.70;;;;;;5048896;28;20192;-57
2022/07/15 05:46:59;;;;;;;3.45;2.13;;;14.10;62.60;;;;;;5054783;28;20192;-54
2022/07/15 05:49:30;;;;;;;2.25;2.05;;;14.10;62.70;;;;;;5051436;28;20211;-45
2022/07/15 05:52:01;;;;;;;2.65;1.95;;;14.10;62.80;;;;;;5051211;28;20210;-56
2022/07/15 05:54:33;;;;;;;2.97;2.30;;;14.10;62.80;;;;;;5051107;28;20206;-42
2022/07/15 05:57:04;;;;;;;3.70;2.25;;;14.10;62.90;;;;;;5052051;28;20203;-47
2022/07/15 05:59:35;;;;;;;2.50;2.08;;;14.10;62.20;;;;;;5051692;28;20230;-49
2022/07/15 06:02:05;;;;;;;3.83;2.53;;;14.10;62.80;;;;;;5051365;28;20217;-55
2022/07/15 06:04:36;;;;;;;2.50;1.83;;;14.10;62.80;;;;;;5051515;28;20188;-42
2022/07/15 06:07:07;;;;;;;3.65;2.13;;;14.10;62.80;;;;;;5050638;28;20226;-42
2022/07/15 06:09:39;;;;;;;2.65;2.17;;;14.10;62.70;;;;;;5051095;28;20710;-42
2022/07/15 06:12:11;;;;;;;3.30;2.28;;;14.10;63.20;;;;;;5051932;28;20204;-44
2022/07/15 06:14:42;;;;;;;3.20;2.08;;;14.10;62.80;;;;;;5051569;28;20192;-43
2022/07/15 06:17:13;;;;;;;2.90;2.20;;;14.10;62.80;;;;;;5051639;28;20183;-48
2022/07/15 06:19:43;;;;;;;2.88;2.45;;;14.10;62.90;;;;;;5040758;28;20224;-55
2022/07/15 06:22:14;;;;;;;4.30;2.17;;;14.10;62.90;;;;;;5051091;28;20200;-42
2022/07/15 06:24:47;;;;;;;4.40;2.38;;;14.10;62.90;;;;;;5051358;28;20807;-51
2022/07/15 06:27:17;;;;;;;2.78;2.30;;;14.00;62.90;;;;;;5051713;28;20204;-55
2022/07/15 06:29:48;;;;;;;2.20;2.00;;;14.00;62.90;;;;;;5049290;28;20272;-56
2022/07/15 06:32:19;;;;;;;2.20;1.95;;;14.10;63.10;;;;;;5051614;28;20644;-45
2022/07/15 06:34:50;;;;;;;2.40;2.00;;;14.00;62.90;;;;;;5051298;28;20196;-49
2022/07/15 06:37:21;;;;;;;2.88;2.28;;;14.10;62.90;;;;;;5051889;28;20231;-58
2022/07/15 06:39:54;;;;;;;3.13;2.10;;;14.10;62.90;;;;;;5050443;28;20227;-53
2022/07/15 06:42:25;;;;;;;3.25;2.08;;;14.10;62.80;;;;;;5050836;28;20191;-58
2022/07/15 06:44:56;;;;;;;2.15;1.83;;;14.00;62.70;;;;;;5050980;28;20562;-59
2022/07/15 06:47:26;;;;;;;2.53;2.15;;;14.00;62.70;;;;;;5050493;28;20195;-49
2022/07/15 06:49:57;;;;;;;2.20;2.00;;;14.00;62.70;;;;;;5051038;28;20211;-56
2022/07/15 06:52:28;;;;;;;3.42;2.25;;;14.00;62.80;;;;;;5050443;28;20199;-58
2022/07/15 06:55:00;;;;;;;2.95;1.73;;;14.00;62.80;;;;;;5051089;28;20195;-55
2022/07/15 06:57:31;;;;;;;4.72;1.90;;;14.00;62.90;;;;;;5051504;28;20195;-57
2022/07/15 07:00:03;;;;;;;2.28;2.08;;;14.00;62.90;;;;;;5050561;28;20230;-55
2022/07/15 07:02:34;;;;;;;3.03;2.20;;;14.00;63.00;;;;;;5049947;28;20230;-59
2022/07/15 07:05:05;;;;;;;2.33;1.98;;;14.00;63.10;;;;;;5050606;28;20206;-54
2022/07/15 07:07:35;;;;;;;2.75;1.80;;;14.00;63.00;;;;;;5050625;28;20203;-57
2022/07/15 07:10:09;;;;;;;2.90;1.88;;;14.00;63.00;;;;;;5050513;28;20306;-49
2022/07/15 07:12:39;;;;;;;1.98;1.83;;;14.00;62.90;;;;;;5051706;28;20195;-56
2022/07/15 07:15:11;;;;;;;2.33;1.85;;;14.00;62.90;;;;;;5050635;28;20188;-59
2022/07/15 07:17:41;;;;;;;3.92;1.95;;;14.00;62.90;;;;;;5050852;28;20211;-51
2022/07/15 07:20:13;;;;;;;2.42;1.85;;;14.00;62.90;;;;;;5049658;28;20219;-56
2022/07/15 07:22:43;;;;;;;3.38;2.00;;;14.00;62.90;;;;;;5030883;28;20564;-59
2022/07/15 07:25:16;;;;;;;2.35;2.00;;;14.00;62.90;;;;;;5041709;28;20198;-57
2022/07/15 07:27:47;;;;;;;3.03;1.83;;;14.00;62.90;;;;;;5051302;28;20203;-56
2022/07/15 07:30:17;;;;;;;3.70;1.85;;;14.00;63.00;;;;;;5050514;28;20211;-54
2022/07/15 07:32:48;;;;;;;2.83;2.00;;;14.00;63.10;;;;;;5050406;28;20199;-55
2022/07/15 07:35:19;;;;;;;2.53;1.88;;;14.00;63.10;;;;;;5050643;28;20205;-52
2022/07/15 07:37:50;;;;;;;2.40;2.03;;;14.00;63.10;;;;;;5050811;28;20225;-51
2022/07/15 07:40:22;;;;;;;1.95;1.75;;;14.00;63.10;;;;;;5050251;28;20597;-55
2022/07/15 07:42:53;;;;;;;1.70;1.52;;;14.00;63.10;;;;;;5050357;28;20207;-57
2022/07/15 07:45:24;;;;;;;2.30;1.80;;;13.90;63.00;;;;;;5050266;28;20596;-57
2022/07/15 07:47:54;;;;;;;3.55;2.05;;;13.90;63.00;;;;;;5050042;28;20671;-57
2022/07/15 07:50:26;;;;;;;2.83;2.33;;;13.90;63.00;;;;;;5050758;28;20686;-53
2022/07/15 07:52:57;;;;;;;3.10;2.17;;;13.90;62.90;;;;;;5050771;28;20195;-55
2022/07/15 07:55:29;;;;;;;2.88;2.30;;;13.90;62.90;;;;;;5050899;28;20204;-56
2022/07/15 07:58:01;;;;;;;2.60;2.35;;;14.00;62.90;;;;;;5051072;28;20195;-50
2022/07/15 08:00:33;;;;;;;2.88;2.15;;;13.90;63.00;;;;;;5050355;28;20220;-49
2022/07/15 08:03:04;;;;;;;2.53;2.22;;;14.00;63.30;;;;;;5050453;28;20286;-53
2022/07/15 08:05:34;;;;;;;2.47;2.22;;;13.90;63.30;;;;;;5050844;28;20674;-48
2022/07/15 08:08:13;;;;;;;2.40;1.95;;;13.90;63.20;;;;;;5050700;28;20203;-52
2022/07/15 08:10:47;;;;;;;2.58;2.00;;;14.00;63.40;;;;;;5050514;28;20214;-54
2022/07/15 08:13:18;;;;;;;2.33;1.95;;;13.90;63.30;;;;;;5050669;28;20621;-49
2022/07/15 08:15:49;;;;;;;3.15;2.20;;;13.90;63.30;;;;;;5050869;28;20210;-44
2022/07/15 08:18:20;;;;;;;2.75;1.98;;;13.90;63.30;;;;;;5051037;28;20195;-49
2022/07/15 08:20:51;;;;;;;2.28;1.73;;;13.90;63.20;;;;;;5050461;28;20227;-49
2022/07/15 08:23:22;;;;;;;2.53;2.17;;;13.90;63.20;;;;;;5050082;28;20200;-48
2022/07/15 08:25:55;;;;;;;2.50;2.10;;;13.90;63.20;;;;;;5031033;28;20196;-48
2022/07/15 08:28:25;;;;;;;2.17;1.98;;;13.90;63.10;;;;;;5030639;28;20196;-48
2022/07/15 08:30:56;;;;;;;2.63;2.10;;;13.90;63.20;;;;;;5046157;28;20215;-52
2022/07/15 08:33:27;;;;;;;2.58;1.98;;;13.90;63.20;;;;;;5053111;28;20203;-52
2022/07/15 08:35:58;;;;;;;2.50;2.30;;;13.90;63.30;;;;;;5050990;28;20564;-43
2022/07/15 08:38:29;;;;;;;3.25;2.22;;;13.90;63.30;;;;;;5052147;28;20191;-52
2022/07/15 08:41:02;;;;;;;3.60;2.00;;;13.90;63.30;;;;;;5051539;28;20211;-50
2022/07/15 08:43:33;;;;;;;2.10;1.90;;;13.90;63.30;;;;;;5053187;28;20203;-54
2022/07/15 08:46:03;;;;;;;2.20;2.00;;;13.90;63.40;;;;;;5053286;28;20203;-55
2022/07/15 08:48:37;;;;;;;2.38;1.95;;;13.90;63.40;;;;;;5052919;28;20656;-50
2022/07/15 08:51:10;;;;;;;2.63;2.00;;;13.90;63.30;;;;;;5053309;28;20211;-55
2022/07/15 08:53:41;;;;;;;2.42;1.90;;;13.80;63.30;;;;;;5052793;28;20192;-49
2022/07/15 08:56:13;;;;;;;2.40;2.10;;;13.80;63.30;;;;;;5051852;28;20206;-55
2022/07/15 08:58:44;;;;;;;2.20;2.00;;;13.80;64.00;;;;;;5052442;28;20204;-44
2022/07/15 09:01:15;;;;;;;3.17;2.33;;;13.90;63.20;;;;;;5052315;28;20202;-46
2022/07/15 09:03:46;;;;;;;2.17;1.70;;;13.80;63.90;;;;;;5053659;28;20199;-54
2022/07/15 09:06:34;;;;;;;2.40;2.20;;;13.80;63.10;;;;;;5052687;28;20209;-53
2022/07/15 09:09:26;;;;;;;2.75;2.08;;;13.80;63.20;;;;;;5052674;28;20661;-50
2022/07/15 09:12:06;;;;;;;2.78;2.00;;;13.80;63.20;;;;;;5052609;28;20195;-52
2022/07/15 09:14:38;;;;;;;2.60;1.98;;;13.80;63.20;;;;;;5052828;28;20195;-57
2022/07/15 09:17:24;;;;;;;1.73;1.63;;;13.80;63.20;;;;;;5053261;28;20192;-49
2022/07/15 09:20:13;;;;;;;2.70;1.90;;;13.80;63.30;;;;;;5052890;28;20590;-46
2022/07/15 09:22:55;;;;;;;2.65;2.13;;;13.80;63.30;;;;;;5032996;28;20259;-50
2022/07/15 09:25:27;;;;;;;2.15;1.95;;;13.80;63.40;;;;;;5050919;28;20191;-48
2022/07/15 09:28:01;;;;;;;2.53;2.03;;;13.80;63.30;;;;;;5053629;28;20199;-52
2022/07/15 09:33:39;;;;;;;2.15;1.90;;;13.80;63.40;;;;;;5052945;28;20202;-58
2022/07/15 09:36:18;;;;;;;1.92;1.73;;;13.80;63.30;;;;;;5052823;28;20249;-55
2022/07/15 09:38:51;;;;;;;2.00;1.80;;;13.80;63.20;;;;;;5052988;28;20210;-52
2022/07/15 09:41:28;;;;;;;2.45;2.08;;;13.70;63.20;;;;;;5050581;28;20202;-46
2022/07/15 09:44:04;;;;;;;1.77;1.63;;;13.80;63.20;;;;;;5053047;28;20272;-55
2022/07/15 09:46:44;;;;;;;2.00;1.80;;;13.70;63.20;;;;;;5052215;28;20678;-45
2022/07/15 09:49:17;;;;;;;2.22;1.75;;;13.80;63.30;;;;;;5052459;28;20563;-56
2022/07/15 09:51:50;;;;;;;1.95;1.75;;;13.70;63.30;;;;;;5052244;28;20545;-59
2022/07/15 09:54:21;;;;;;;2.13;1.92;;;13.70;63.30;;;;;;5053107;28;20638;-55
2022/07/15 09:56:53;;;;;;;2.15;1.60;;;13.70;63.30;;;;;;5053048;28;20196;-55
2022/07/15 09:59:25;;;;;;;2.35;1.80;;;13.70;63.30;;;;;;5052048;28;20219;-55
2022/07/15 10:01:56;;;;;;;1.77;1.55;;;13.70;63.30;;;;;;5051131;28;20191;-57
2022/07/15 10:04:28;;;;;;;2.00;1.70;;;13.70;63.30;;;;;;5051026;28;20211;-42
2022/07/15 10:07:01;;;;;;;2.08;1.88;;;13.70;63.40;;;;;;5051636;28;20564;-59
2022/07/15 10:09:34;;;;;;;2.15;1.75;;;13.70;63.30;;;;;;5051374;28;20703;-53
2022/07/15 10:12:10;;;;;;;1.92;1.60;;;13.70;63.30;;;;;;5051810;28;20202;-57
2022/07/15 10:15:04;;;;;;;2.10;1.80;;;13.70;63.30;;;;;;5051893;28;20278;-59
2022/07/15 10:18:02;;;;;;;2.13;1.60;;;13.60;63.20;;;;;;5051433;28;20237;-56
2022/07/15 10:21:05;;;;;;;1.90;1.52;;;13.70;63.30;;;;;;5051359;28;20254;-58
2022/07/15 10:23:59;;;;;;;2.00;1.80;;;13.70;63.30;;;;;;5051159;28;20191;-58
2022/07/15 10:26:46;;;;;;;2.80;1.60;;;13.70;63.30;;;;;;5051804;28;20712;-58
2022/07/15 10:29:18;;;;;;;1.75;1.65;;;13.70;63.30;;;;;;5049732;28;20265;-59
2022/07/15 10:31:59;;;;;;;2.45;1.70;;;13.70;63.30;;;;;;5041362;28;20211;-58
2022/07/15 10:34:34;;;;;;;1.92;1.73;;;13.60;63.30;;;;;;5050948;28;20655;-56
2022/07/15 10:37:10;;;;;;;4.40;1.85;;;13.60;63.30;;;;;;5051656;28;20195;-58
2022/07/15 10:40:05;;;;;;;1.52;1.40;;;13.60;63.30;;;;;;5051324;28;20222;-55
2022/07/15 10:43:01;;;;;;;1.75;1.35;;;13.60;63.30;;;;;;5051054;28;20608;-57
2022/07/15 10:45:31;;;;;;;1.45;1.35;;;13.60;63.20;;;;;;5051364;28;20199;-49
2022/07/15 10:48:30;;;;;;;1.95;1.77;;;13.60;63.20;;;;;;5050817;28;20396;-48
2022/07/15 10:51:01;;;;;;;1.83;1.52;;;13.60;63.20;;;;;;5035516;28;20225;-52
2022/07/15 10:53:32;;;;;;;1.95;1.77;;;13.60;63.20;;;;;;5051051;28;20203;-56
2022/07/15 10:56:30;;;;;;;1.52;1.30;;;13.60;63.20;;;;;;5050782;28;20200;-53
2022/07/15 10:59:24;;;;;;;2.20;1.70;;;13.60;63.40;;;;;;5050723;28;20203;-55
2022/07/15 11:02:15;;;;;;;2.15;1.60;;;13.60;63.40;;;;;;5032460;28;20614;-58
2022/07/15 11:04:49;;;;;;;1.48;1.38;;;13.60;63.30;;;;;;5051053;28;20618;-55
2022/07/15 11:07:26;;;;;;;1.52;1.42;;;13.50;63.30;;;;;;5050535;28;20195;-48
2022/07/15 11:09:58;;;;;;;2.72;1.70;;;13.60;63.40;;;;;;5031272;28;20228;-56
2022/07/15 11:13:06;;;;;;;1.70;1.50;;;13.50;63.20;;;;;;5051492;28;20199;-53
2022/07/15 11:15:36;;;;;;;1.83;1.55;;;13.50;63.20;;;;;;5051207;28;20199;-58
2022/07/15 11:18:07;;;;;;;1.45;1.33;;;13.50;63.20;;;;;;5050594;28;20199;-48
2022/07/15 11:20:43;;;;;;;1.95;1.75;;;13.50;63.10;;;;;;5050442;28;20227;-49
2022/07/15 11:23:14;;;;;;;1.67;1.58;;;13.50;63.20;;;;;;5050758;28;20199;-57
2022/07/15 11:25:45;;;;;;;1.48;1.30;;;13.50;63.20;;;;;;5050663;28;20201;-51
2022/07/15 11:28:18;;;;;;;1.85;1.65;;;13.50;63.30;;;;;;5051394;28;20686;-53
2022/07/15 11:30:53;;;;;;;1.75;1.45;;;13.50;63.30;;;;;;5050235;28;20700;-54
2022/07/15 11:33:29;;;;;;;1.92;1.75;;;13.50;63.40;;;;;;5049574;28;20191;-52
2022/07/15 11:36:04;;;;;;;1.80;1.63;;;13.50;63.40;;;;;;5049847;28;20304;-50
2022/07/15 11:38:40;;;;;;;2.35;1.73;;;13.50;63.30;;;;;;5049489;28;20195;-53
2022/07/15 11:46:49;;;;;;;1.70;1.60;;;13.40;64.00;;;;;;5051298;28;20273;-54
2022/07/15 11:49:30;;;;;;;1.70;1.40;;;13.40;63.30;;;;;;5050720;28;20683;-49
2022/07/15 11:52:03;;;;;;;2.03;1.83;;;13.40;63.30;;;;;;5050440;28;20537;-46
2022/07/15 11:54:37;;;;;;;2.35;1.83;;;13.40;63.30;;;;;;5051014;28;20195;-57
2022/07/15 11:57:10;;;;;;;1.50;1.40;;;13.40;63.20;;;;;;5049921;28;20249;-54
2022/07/15 11:59:40;;;;;;;2.00;1.80;;;13.40;63.30;;;;;;5049875;28;20223;-56
2022/07/15 12:02:14;;;;;;;2.30;1.58;;;13.40;63.40;;;;;;5048320;28;20215;-53
2022/07/15 12:04:45;;;;;;;1.65;1.55;;;13.40;63.40;;;;;;5052027;28;20600;-52
2022/07/15 12:07:18;;;;;;;2.22;1.67;;;13.30;63.30;;;;;;5054713;28;20198;-54
2022/07/15 12:09:50;;;;;;;2.03;1.77;;;13.30;63.30;;;;;;5053904;28;20780;-59
2022/07/15 12:12:21;;;;;;;2.22;1.50;;;13.30;63.30;;;;;;5054098;28;20196;-55
2022/07/15 12:14:53;;;;;;;1.88;1.77;;;13.30;63.30;;;;;;5053882;28;20666;-51
2022/07/15 12:17:24;;;;;;;1.67;1.52;;;13.30;63.30;;;;;;5052743;28;20207;-53
2022/07/15 12:19:56;;;;;;;1.65;1.55;;;13.30;63.20;;;;;;5053187;28;20691;-51
2022/07/15 12:22:28;;;;;;;1.65;1.45;;;13.30;63.20;;;;;;5054154;28;20242;-52
2022/07/15 12:24:59;;;;;;;2.05;1.58;;;13.30;63.20;;;;;;5054071;28;20202;-47
2022/07/15 12:27:39;;;;;;;1.95;1.67;;;13.30;63.10;;;;;;5054130;28;20192;-45
2022/07/15 12:30:11;;;;;;;1.60;1.50;;;13.30;63.10;;;;;;5053769;28;20732;-54
2022/07/15 12:32:42;;;;;;;1.88;1.50;;;13.20;63.10;;;;;;5053537;28;20195;-47
2022/07/15 12:35:13;;;;;;;1.45;1.35;;;13.30;63.20;;;;;;5054202;28;20456;-46
2022/07/15 12:37:55;;;;;;;2.25;1.65;;;13.30;63.20;;;;;;5054650;28;20196;-50
2022/07/15 12:40:26;;;;;;;2.42;1.60;;;13.20;63.20;;;;;;5054573;28;20242;-56
2022/07/15 12:42:57;;;;;;;2.13;1.60;;;13.20;63.20;;;;;;5054076;28;20204;-49
2022/07/15 12:45:30;;;;;;;2.33;1.58;;;13.20;63.30;;;;;;5051915;28;20508;-54
2022/07/15 12:48:03;;;;;;;1.98;1.63;;;13.20;63.20;;;;;;5051978;28;20195;-55
2022/07/15 12:50:34;;;;;;;1.75;1.48;;;13.20;63.20;;;;;;5053152;28;20349;-45
2022/07/15 12:53:07;;;;;;;1.55;1.40;;;13.20;63.20;;;;;;5053052;28;20187;-50
2022/07/15 12:55:46;;;;;;;1.52;1.42;;;13.20;63.20;;;;;;5053447;28;20283;-51
2022/07/15 12:58:18;;;;;;;1.67;1.40;;;13.10;63.10;;;;;;5053417;28;20261;-53
2022/07/15 13:00:49;;;;;;;1.83;1.42;;;13.10;63.00;;;;;;5052541;28;20227;-54
2022/07/15 13:03:21;;;;;;;1.63;1.40;;;13.10;63.00;;;;;;5053354;28;20200;-54
2022/07/15 13:05:54;;;;;;;1.65;1.33;;;13.10;63.00;;;;;;5053065;28;20195;-59
2022/07/15 13:08:29;;;;;;;1.50;1.40;;;13.10;63.00;;;;;;5052326;28;20278;-56
2022/07/15 13:11:01;;;;;;;1.67;1.40;;;13.10;63.10;;;;;;5052615;28;20222;-59
2022/07/15 13:13:33;;;;;;;1.75;1.38;;;13.10;63.20;;;;;;5052514;28;20239;-54
2022/07/15 13:16:05;;;;;;;1.30;1.20;;;13.00;63.10;;;;;;5051650;28;20195;-56
2022/07/15 13:18:37;;;;;;;1.90;1.60;;;13.00;63.10;;;;;;5051624;28;20664;-56
2022/07/15 13:21:08;;;;;;;2.17;1.40;;;13.00;63.10;;;;;;5039159;28;20229;-55
2022/07/15 13:23:41;;;;;;;2.00;1.52;;;13.00;63.10;;;;;;5052425;28;20562;-52